Terminal Aerodrome Forecast
Issued by NWS

Home | Current Version | Previous Version | Text Only | Print | Product List | Glossary On
Versions: 1 2 3 4 5 6 7 8 9 10 11 12 13 14 15
696
FTUS46 KSEW 271120
TAFBFI
TAF
KBFI 271120Z 2712/2812 18008KT P6SM OVC018
     FM271700 20006KT P6SM BKN025
     FM272000 24006KT P6SM SCT040 SCT200
     FM280000 32006KT P6SM SCT200
     FM280900 VRB04KT P6SM SCT020
     FM281100 16006KT P6SM BKN025=

USA.gov is the U.S. government's official web portal to all federal, state and local government web resources and services.